sensor_id;sensor_type;location;lat;lon;timestamp;P1;durP1;ratioP1;P2;durP2;ratioP2
1370;SDS011;14306;49.942;11.570;2023-10-09T19:33:46;24.37;;;10.47;;
1370;SDS011;14306;49.942;11.570;2023-10-09T19:36:15;15.87;;;9.43;;
1370;SDS011;14306;49.942;11.570;2023-10-09T19:38:48;21.13;;;8.50;;
1370;SDS011;14306;49.942;11.570;2023-10-09T19:41:18;17.00;;;9.07;;
1370;SDS011;14306;49.942;11.570;2023-10-09T19:43:47;17.47;;;9.03;;
1370;SDS011;14306;49.942;11.570;2023-10-09T19:46:16;20.93;;;10.43;;
1370;SDS011;14306;49.942;11.570;2023-10-09T19:48:46;18.53;;;9.07;;
1370;SDS011;14306;49.942;11.570;2023-10-09T19:51:15;16.03;;;8.90;;
1370;SDS011;14306;49.942;11.570;2023-10-09T19:53:45;22.53;;;8.97;;
1370;SDS011;14306;49.942;11.570;2023-10-09T19:56:13;18.10;;;10.20;;
1370;SDS011;14306;49.942;11.570;2023-10-09T19:58:45;17.83;;;9.90;;
1370;SDS011;14306;49.942;11.570;2023-10-09T20:01:13;17.77;;;9.50;;
1370;SDS011;14306;49.942;11.570;2023-10-09T20:03:42;22.43;;;10.73;;
1370;SDS011;14306;49.942;11.570;2023-10-09T20:06:12;25.83;;;10.33;;
1370;SDS011;14306;49.942;11.570;2023-10-09T20:08:42;16.00;;;9.63;;
1370;SDS011;14306;49.942;11.570;2023-10-09T20:11:10;17.53;;;9.57;;
1370;SDS011;14306;49.942;11.570;2023-10-09T20:13:39;15.20;;;8.93;;
1370;SDS011;14306;49.942;11.570;2023-10-09T20:16:09;20.20;;;9.93;;
1370;SDS011;14306;49.942;11.570;2023-10-09T20:18:38;30.00;;;10.10;;
1370;SDS011;14306;49.942;11.570;2023-10-09T20:21:09;31.40;;;13.10;;
1370;SDS011;14306;49.942;11.570;2023-10-09T20:23:40;19.80;;;9.50;;
1370;SDS011;14306;49.942;11.570;2023-10-09T20:26:10;22.33;;;9.73;;
1370;SDS011;14306;49.942;11.570;2023-10-09T20:28:42;16.20;;;9.40;;
1370;SDS011;14306;49.942;11.570;2023-10-09T20:31:12;19.47;;;11.70;;
1370;SDS011;14306;49.942;11.570;2023-10-09T20:33:41;20.20;;;10.13;;
1370;SDS011;14306;49.942;11.570;2023-10-09T20:36:10;23.17;;;11.27;;
1370;SDS011;14306;49.942;11.570;2023-10-09T20:38:45;21.47;;;13.50;;
1370;SDS011;14306;49.942;11.570;2023-10-09T20:41:14;28.27;;;12.90;;
1370;SDS011;14306;49.942;11.570;2023-10-09T20:43:43;29.33;;;13.17;;
1370;SDS011;14306;49.942;11.570;2023-10-09T20:46:11;21.93;;;11.90;;
1370;SDS011;14306;49.942;11.570;2023-10-09T20:48:42;27.73;;;13.20;;
1370;SDS011;14306;49.942;11.570;2023-10-09T20:51:12;28.27;;;14.30;;
1370;SDS011;14306;49.942;11.570;2023-10-09T20:53:41;31.17;;;14.40;;
1370;SDS011;14306;49.942;11.570;2023-10-09T20:56:11;22.37;;;12.90;;
1370;SDS011;14306;49.942;11.570;2023-10-09T20:58:40;27.50;;;15.17;;
1370;SDS011;14306;49.942;11.570;2023-10-09T21:01:10;25.70;;;13.73;;
1370;SDS011;14306;49.942;11.570;2023-10-09T21:03:43;22.13;;;13.13;;
1370;SDS011;14306;49.942;11.570;2023-10-09T21:06:13;27.77;;;14.20;;
1370;SDS011;14306;49.942;11.570;2023-10-09T21:08:41;28.80;;;13.43;;
1370;SDS011;14306;49.942;11.570;2023-10-09T21:11:12;23.57;;;12.30;;
1370;SDS011;14306;49.942;11.570;2023-10-09T21:13:41;22.70;;;13.77;;
1370;SDS011;14306;49.942;11.570;2023-10-09T21:16:12;27.07;;;14.00;;
1370;SDS011;14306;49.942;11.570;2023-10-09T21:18:40;31.70;;;14.37;;
1370;SDS011;14306;49.942;11.570;2023-10-09T21:21:10;25.27;;;15.30;;
1370;SDS011;14306;49.942;11.570;2023-10-09T21:23:40;23.47;;;12.87;;
1370;SDS011;14306;49.942;11.570;2023-10-09T21:26:15;24.40;;;14.63;;
1370;SDS011;14306;49.942;11.570;2023-10-09T21:28:46;31.47;;;17.00;;
1370;SDS011;14306;49.942;11.570;2023-10-09T21:31:14;30.73;;;11.97;;
1370;SDS011;14306;49.942;11.570;2023-10-09T21:33:45;22.17;;;13.43;;
1370;SDS011;14306;49.942;11.570;2023-10-09T21:36:16;28.07;;;15.07;;
1370;SDS011;14306;49.942;11.570;2023-10-09T21:38:44;26.47;;;13.90;;
1370;SDS011;14306;49.942;11.570;2023-10-09T21:41:12;24.70;;;13.17;;
1370;SDS011;14306;49.942;11.570;2023-10-09T21:43:45;24.40;;;12.93;;
1370;SDS011;14306;49.942;11.570;2023-10-09T21:46:14;26.10;;;13.77;;
1370;SDS011;14306;49.942;11.570;2023-10-09T21:48:42;42.27;;;16.13;;
1370;SDS011;14306;49.942;11.570;2023-10-09T21:51:10;23.87;;;14.07;;
1370;SDS011;14306;49.942;11.570;2023-10-09T21:53:43;26.07;;;13.67;;
1370;SDS011;14306;49.942;11.570;2023-10-09T21:56:12;39.00;;;13.83;;
1370;SDS011;14306;49.942;11.570;2023-10-09T21:58:42;26.40;;;14.00;;
1370;SDS011;14306;49.942;11.570;2023-10-09T22:01:12;24.00;;;14.00;;
1370;SDS011;14306;49.942;11.570;2023-10-09T22:03:40;26.90;;;15.00;;
1370;SDS011;14306;49.942;11.570;2023-10-09T22:06:08;28.93;;;14.33;;
1370;SDS011;14306;49.942;11.570;2023-10-09T22:08:37;24.07;;;14.50;;
1370;SDS011;14306;49.942;11.570;2023-10-09T22:11:05;28.53;;;13.90;;
1370;SDS011;14306;49.942;11.570;2023-10-09T22:13:34;26.83;;;14.80;;
1370;SDS011;14306;49.942;11.570;2023-10-09T22:16:02;21.77;;;12.87;;
1370;SDS011;14306;49.942;11.570;2023-10-09T22:18:33;23.33;;;13.33;;
1370;SDS011;14306;49.942;11.570;2023-10-09T22:21:07;19.47;;;11.67;;
1370;SDS011;14306;49.942;11.570;2023-10-09T22:23:37;29.07;;;12.47;;
1370;SDS011;14306;49.942;11.570;2023-10-09T22:26:13;24.57;;;10.93;;
1370;SDS011;14306;49.942;11.570;2023-10-09T22:28:42;19.33;;;10.90;;
1370;SDS011;14306;49.942;11.570;2023-10-09T22:31:13;20.00;;;10.97;;
1370;SDS011;14306;49.942;11.570;2023-10-09T22:33:44;23.43;;;11.03;;
1370;SDS011;14306;49.942;11.570;2023-10-09T22:36:16;22.33;;;10.37;;
1370;SDS011;14306;49.942;11.570;2023-10-09T22:39:07;24.40;;;11.07;;
1370;SDS011;14306;49.942;11.570;2023-10-09T22:41:47;20.90;;;12.17;;
1370;SDS011;14306;49.942;11.570;2023-10-09T22:44:16;19.00;;;12.07;;
1370;SDS011;14306;49.942;11.570;2023-10-09T22:46:46;25.80;;;11.03;;
1370;SDS011;14306;49.942;11.570;2023-10-09T22:49:16;20.50;;;10.07;;
1370;SDS011;14306;49.942;11.570;2023-10-09T22:51:44;16.80;;;9.43;;
1370;SDS011;14306;49.942;11.570;2023-10-09T22:54:17;20.33;;;10.27;;
1370;SDS011;14306;49.942;11.570;2023-10-09T22:56:52;21.50;;;10.70;;
1370;SDS011;14306;49.942;11.570;2023-10-09T22:59:21;16.33;;;10.23;;
1370;SDS011;14306;49.942;11.570;2023-10-09T23:01:53;17.07;;;8.43;;
1370;SDS011;14306;49.942;11.570;2023-10-09T23:04:28;19.37;;;9.53;;
1370;SDS011;14306;49.942;11.570;2023-10-09T23:07:03;22.20;;;8.50;;
1370;SDS011;14306;49.942;11.570;2023-10-09T23:09:40;16.70;;;9.47;;
1370;SDS011;14306;49.942;11.570;2023-10-09T23:12:16;16.50;;;9.47;;
1370;SDS011;14306;49.942;11.570;2023-10-09T23:14:49;12.43;;;8.60;;
1370;SDS011;14306;49.942;11.570;2023-10-09T23:17:19;18.13;;;8.77;;
1370;SDS011;14306;49.942;11.570;2023-10-09T23:20:11;15.47;;;8.50;;
1370;SDS011;14306;49.942;11.570;2023-10-09T23:22:49;17.70;;;8.43;;
1370;SDS011;14306;49.942;11.570;2023-10-09T23:25:18;13.47;;;8.70;;
1370;SDS011;14306;49.942;11.570;2023-10-09T23:27:56;16.33;;;7.90;;
1370;SDS011;14306;49.942;11.570;2023-10-09T23:30:39;15.40;;;8.10;;
1370;SDS011;14306;49.942;11.570;2023-10-09T23:33:09;18.53;;;8.90;;
1370;SDS011;14306;49.942;11.570;2023-10-09T23:35:49;24.43;;;9.73;;
1370;SDS011;14306;49.942;11.570;2023-10-09T23:38:23;17.60;;;8.53;;
1370;SDS011;14306;49.942;11.570;2023-10-09T23:41:01;17.33;;;9.10;;
1370;SDS011;14306;49.942;11.570;2023-10-09T23:43:36;17.23;;;8.60;;
1370;SDS011;14306;49.942;11.570;2023-10-09T23:46:11;17.77;;;8.00;;
1370;SDS011;14306;49.942;11.570;2023-10-09T23:48:43;27.47;;;8.40;;
1370;SDS011;14306;49.942;11.570;2023-10-09T23:51:13;15.73;;;8.93;;
1370;SDS011;14306;49.942;11.570;2023-10-09T23:53:46;19.80;;;8.70;;
1370;SDS011;14306;49.942;11.570;2023-10-09T23:56:19;16.90;;;10.10;;
1370;SDS011;14306;49.942;11.570;2023-10-09T23:59:01;16.97;;;8.43;;
